Time;durP1;ratioP1;P1;durP2;ratioP2;P2;SDS_P1;SDS_P2;PMS_P1;PMS_P2;Temp;Humidity;BMP_temperature;BMP_pressure;BME280_temperature;BME280_humidity;BME280_pressure;Samples;Min_cycle;Max_cycle;Signal;HPM_P1;HPM_P2
2023/09/03 00:01:11;;;;;;;3.00;2.80;;;;;;;18.39;100.00;100842.75;5026641;28;20225;-77
2023/09/03 00:03:37;;;;;;;2.77;2.30;;;;;;;18.37;100.00;100838.50;5025705;28;20247;-77
2023/09/03 00:06:02;;;;;;;2.80;2.60;;;;;;;18.36;100.00;100844.63;5024087;28;20762;-77
2023/09/03 00:08:27;;;;;;;2.60;2.40;;;;;;;18.35;100.00;100840.31;5027296;28;20190;-77
2023/09/03 00:10:54;;;;;;;3.10;2.80;;;;;;;18.33;100.00;100844.72;5021285;28;20201;-77
2023/09/03 00:13:20;;;;;;;2.73;2.50;;;;;;;18.31;100.00;100841.31;5017727;28;20183;-76
2023/09/03 00:15:46;;;;;;;2.43;2.23;;;;;;;18.28;100.00;100844.88;5024390;28;20213;-76
2023/09/03 00:18:12;;;;;;;3.73;2.83;;;;;;;18.25;100.00;100845.81;5028412;28;20672;-77
2023/09/03 00:20:38;;;;;;;2.90;2.70;;;;;;;18.23;100.00;100849.41;5028434;28;20204;-78
2023/09/03 00:23:04;;;;;;;3.33;2.30;;;;;;;18.17;100.00;100841.72;5021013;28;20190;-76
2023/09/03 00:25:36;;;;;;;2.80;2.60;;;;;;;18.12;100.00;100844.50;5023033;28;20215;-78
2023/09/03 00:28:01;;;;;;;2.93;2.37;;;;;;;18.06;100.00;100844.72;5021537;28;20264;-78
2023/09/03 00:30:26;;;;;;;2.43;2.23;;;;;;;18.03;100.00;100850.88;5023161;28;20221;-77
2023/09/03 00:32:52;;;;;;;2.93;2.07;;;;;;;18.00;100.00;100850.97;5022491;28;20542;-77
2023/09/03 00:35:17;;;;;;;2.87;2.30;;;;;;;17.96;100.00;100847.56;5029530;28;20263;-78
2023/09/03 00:37:42;;;;;;;3.80;2.20;;;;;;;17.94;100.00;100854.59;5033124;28;20191;-77
2023/09/03 00:40:08;;;;;;;2.70;2.50;;;;;;;17.91;100.00;100854.72;5025668;28;20291;-77
2023/09/03 00:42:34;;;;;;;2.50;2.30;;;;;;;17.90;100.00;100855.63;5019044;28;20285;-78
2023/09/03 00:45:00;;;;;;;2.63;2.30;;;;;;;17.89;100.00;100864.38;5019562;28;20197;-77
2023/09/03 00:47:26;;;;;;;3.00;2.30;;;;;;;17.86;100.00;100867.09;5025520;28;20564;-78
2023/09/03 00:49:51;;;;;;;2.20;2.00;;;;;;;17.83;100.00;100864.56;5025169;28;20258;-78
2023/09/03 00:52:19;;;;;;;2.57;2.37;;;;;;;17.81;100.00;100867.22;5024418;28;20183;-77
2023/09/03 00:54:44;;;;;;;2.40;2.20;;;;;;;17.79;100.00;100874.28;5023580;28;20211;-77
2023/09/03 00:57:10;;;;;;;2.70;2.50;;;;;;;17.78;100.00;100869.94;5033170;28;20168;-76
2023/09/03 00:59:35;;;;;;;3.17;2.87;;;;;;;17.77;100.00;100870.84;5041740;28;20703;-77
2023/09/03 01:02:01;;;;;;;2.57;2.37;;;;;;;17.77;100.00;100870.84;5029235;28;20892;-78
2023/09/03 01:04:26;;;;;;;2.93;2.00;;;;;;;17.75;100.00;100863.94;5030877;28;20295;-78
2023/09/03 01:06:53;;;;;;;2.60;2.20;;;;;;;17.73;100.00;100860.50;5034060;28;20202;-77
2023/09/03 01:09:19;;;;;;;2.50;2.30;;;;;;;17.72;100.00;100858.78;5028599;28;20249;-78
2023/09/03 01:12:07;;;;;;;2.73;2.53;;;;;;;17.72;100.00;100867.50;5019964;28;20196;-77
2023/09/03 01:15:01;;;;;;;2.70;2.50;;;;;;;17.70;100.00;100868.44;5023180;28;20188;-77
2023/09/03 01:17:55;;;;;;;2.80;2.60;;;;;;;17.69;100.00;100872.84;5028796;28;20199;-78
2023/09/03 01:20:35;;;;;;;2.43;2.30;;;;;;;17.67;100.00;100880.72;5017310;28;20221;-77
2023/09/03 01:23:03;;;;;;;2.80;2.60;;;;;;;17.64;100.00;100886.03;5032771;28;20184;-78
2023/09/03 01:26:03;;;;;;;3.83;2.67;;;;;;;17.63;100.00;100896.56;5028407;28;20227;-79
2023/09/03 01:28:39;;;;;;;2.70;2.50;;;;;;;17.58;100.00;100899.31;5024308;28;20295;-78
2023/09/03 01:31:08;;;;;;;2.40;2.20;;;;;;;17.56;100.00;100902.84;5027464;28;20272;-78
2023/09/03 01:33:38;;;;;;;2.70;2.50;;;;;;;17.53;100.00;100909.03;5026467;28;20824;-77
2023/09/03 01:36:06;;;;;;;4.00;2.50;;;;;;;17.52;100.00;100917.78;5019929;28;20694;-78
2023/09/03 01:38:35;;;;;;;2.53;2.13;;;;;;;17.49;100.00;100923.09;5026896;28;20263;-77
2023/09/03 01:41:01;;;;;;;2.53;2.33;;;;;;;17.46;100.00;100931.91;5021472;28;20207;-77
2023/09/03 01:43:26;;;;;;;2.40;2.20;;;;;;;17.44;100.00;100931.09;5025913;28;20239;-78
2023/09/03 01:46:06;;;;;;;2.63;2.43;;;;;;;17.46;100.00;100937.16;5020397;28;20604;-78
2023/09/03 01:48:54;;;;;;;2.83;2.60;;;;;;;17.49;100.00;100928.34;5025218;28;20204;-78
2023/09/03 01:51:33;;;;;;;3.40;3.03;;;;;;;17.50;100.00;100935.28;5021729;28;20215;-78
2023/09/03 01:54:16;;;;;;;3.20;2.90;;;;;;;17.50;100.00;100925.69;5023590;28;20308;-78
2023/09/03 01:57:03;;;;;;;3.63;2.63;;;;;;;17.50;100.00;100940.53;5023959;28;21999;-78
2023/09/03 01:59:51;;;;;;;3.90;2.90;;;;;;;17.48;100.00;100934.47;5018968;28;20209;-78
2023/09/03 02:02:17;;;;;;;3.20;3.00;;;;;;;17.46;100.00;100934.53;5021030;28;20682;-78
2023/09/03 02:04:42;;;;;;;3.70;3.40;;;;;;;17.46;100.00;100933.69;5019541;28;20217;-77
2023/09/03 02:07:08;;;;;;;3.13;2.93;;;;;;;17.45;100.00;100937.19;5017843;28;20197;-78
2023/09/03 02:09:33;;;;;;;3.53;3.13;;;;;;;17.44;100.00;100936.31;5026503;28;20207;-77
2023/09/03 02:11:59;;;;;;;3.37;3.17;;;;;;;17.44;100.00;100938.94;5022754;28;20620;-78
2023/09/03 02:14:26;;;;;;;3.50;3.20;;;;;;;17.42;100.00;100938.13;5022418;28;20227;-77
2023/09/03 02:16:51;;;;;;;4.67;2.90;;;;;;;17.41;100.00;100948.63;5024196;28;20226;-77
2023/09/03 02:19:17;;;;;;;3.00;2.67;;;;;;;17.40;100.00;100939.91;5019019;28;20691;-78
2023/09/03 02:21:42;;;;;;;3.37;3.07;;;;;;;17.40;100.00;100941.69;5022989;28;20196;-78
2023/09/03 02:24:07;;;;;;;3.97;3.67;;;;;;;17.39;100.00;100939.97;5027244;28;20644;-77
2023/09/03 02:26:39;;;;;;;3.30;2.97;;;;;;;17.37;100.00;100946.09;5022571;28;20569;-78
2023/09/03 02:29:04;;;;;;;3.70;3.40;;;;;;;17.32;100.00;100942.72;5023552;28;20187;-77
2023/09/03 02:31:29;;;;;;;4.27;3.00;;;;;;;17.29;100.00;100940.22;5035212;28;20779;-78
2023/09/03 02:33:55;;;;;;;2.90;2.70;;;;;;;17.26;100.00;100936.81;5026833;28;20242;-78
2023/09/03 02:36:20;;;;;;;3.00;2.70;;;;;;;17.23;100.00;100942.16;5023794;28;20206;-77
2023/09/03 02:38:45;;;;;;;3.20;2.60;;;;;;;17.19;100.00;100941.34;5025867;28;20199;-78
2023/09/03 02:41:10;;;;;;;3.27;2.97;;;;;;;17.15;100.00;100951.03;5026705;28;20211;-78
2023/09/03 02:43:36;;;;;;;2.87;2.67;;;;;;;17.14;100.00;100957.16;5015348;28;20220;-78
2023/09/03 02:46:01;;;;;;;2.60;2.40;;;;;;;17.13;100.00;100944.13;5028280;28;20211;-78
2023/09/03 02:48:26;;;;;;;3.10;2.90;;;;;;;17.12;100.00;100945.03;5023942;28;20191;-78
2023/09/03 02:50:52;;;;;;;2.97;2.77;;;;;;;17.10;100.00;100938.97;5019278;28;20203;-77
2023/09/03 02:53:17;;;;;;;3.17;2.87;;;;;;;17.05;100.00;100955.63;5039462;28;20189;-76
2023/09/03 02:55:42;;;;;;;3.67;2.60;;;;;;;17.04;100.00;100955.69;5057161;28;20191;-78
2023/09/03 02:58:07;;;;;;;2.90;2.67;;;;;;;17.01;100.00;100959.25;5030401;28;20196;-78
2023/09/03 03:00:34;;;;;;;2.67;2.47;;;;;;;16.98;100.00;100951.47;5032103;28;20805;-78
2023/09/03 03:02:59;;;;;;;2.70;2.40;;;;;;;16.97;100.00;100959.34;5020480;28;20193;-78
2023/09/03 03:05:25;;;;;;;2.70;2.50;;;;;;;16.95;100.00;100966.34;5024442;28;20566;-78
2023/09/03 03:07:50;;;;;;;3.60;2.40;;;;;;;16.91;100.00;100963.81;5018748;28;20691;-78
2023/09/03 03:10:16;;;;;;;2.87;2.67;;;;;;;16.89;100.00;100968.22;5021214;28;20306;-77
2023/09/03 03:12:44;;;;;;;3.33;2.73;;;;;;;16.87;100.00;100961.28;5025148;28;20241;-78
2023/09/03 03:15:10;;;;;;;2.97;2.77;;;;;;;16.85;100.00;100969.19;5018825;28;20645;-77
2023/09/03 03:17:35;;;;;;;3.00;2.50;;;;;;;16.81;100.00;100964.06;5019429;28;20275;-77
2023/09/03 03:20:00;;;;;;;3.07;2.77;;;;;;;16.81;100.00;100975.38;5016892;28;20354;-78
2023/09/03 03:22:25;;;;;;;2.93;2.73;;;;;;;16.80;100.00;100975.41;5023375;28;20198;-78
2023/09/03 03:24:51;;;;;;;2.90;2.70;;;;;;;16.79;100.00;100979.75;5024746;28;20219;-77
2023/09/03 03:27:17;;;;;;;3.17;2.97;;;;;;;16.80;100.00;100988.47;5021108;28;20191;-78
2023/09/03 03:29:42;;;;;;;3.50;3.30;;;;;;;16.77;100.00;100985.03;5021033;28;20211;-78
2023/09/03 03:32:08;;;;;;;2.90;2.70;;;;;;;16.75;100.00;100980.75;5024626;28;20191;-79
2023/09/03 03:34:33;;;;;;;2.73;2.53;;;;;;;16.75;100.00;100981.59;5023867;28;20405;-78
2023/09/03 03:36:58;;;;;;;3.40;3.10;;;;;;;16.76;100.00;100985.94;5017972;28;21040;-77
2023/09/03 03:39:23;;;;;;;3.50;3.20;;;;;;;16.78;100.00;100983.31;5026162;28;20184;-77
2023/09/03 03:41:49;;;;;;;3.20;2.90;;;;;;;16.81;100.00;100988.44;5020565;28;20292;-78
2023/09/03 03:44:14;;;;;;;4.20;3.07;;;;;;;16.83;100.00;100991.03;5019826;28;20234;-77
2023/09/03 03:46:40;;;;;;;3.17;2.97;;;;;;;16.84;100.00;100993.59;5018115;28;20231;-77
2023/09/03 03:49:05;;;;;;;2.97;2.77;;;;;;;16.85;100.00;101003.16;5020580;28;20226;-78
2023/09/03 03:51:31;;;;;;;4.10;3.70;;;;;;;16.85;100.00;101002.31;5020690;28;20218;-78
2023/09/03 03:54:02;;;;;;;5.60;3.77;;;;;;;16.82;100.00;101005.84;5020847;28;20191;-77
2023/09/03 03:56:28;;;;;;;3.93;3.40;;;;;;;16.79;100.00;101002.44;5019995;28;20245;-78
2023/09/03 03:58:53;;;;;;;3.70;3.40;;;;;;;16.76;100.00;101006.84;5022194;28;20191;-78
2023/09/03 04:01:20;;;;;;;2.73;2.53;;;;;;;16.77;100.00;101002.50;5021858;28;20248;-78
2023/09/03 04:03:49;;;;;;;3.30;3.00;;;;;;;16.75;100.00;101002.50;5017854;28;20203;-78
2023/09/03 04:06:15;;;;;;;3.93;3.30;;;;;;;16.75;100.00;101012.97;5018758;28;20655;-78
2023/09/03 04:08:43;;;;;;;3.53;3.30;;;;;;;16.72;100.00;101010.41;5026236;28;20266;-78
2023/09/03 04:11:10;;;;;;;3.17;2.97;;;;;;;16.68;100.00;101002.69;5016280;28;20215;-78
2023/09/03 04:13:36;;;;;;;3.53;3.23;;;;;;;16.66;100.00;101005.34;5023775;28;20283;-78
2023/09/03 04:16:09;;;;;;;3.10;2.90;;;;;;;16.64;100.00;101012.38;5023985;28;20184;-76
2023/09/03 04:18:36;;;;;;;3.70;3.40;;;;;;;16.59;100.00;101011.59;5025201;28;20195;-78
2023/09/03 04:21:01;;;;;;;3.00;2.80;;;;;;;16.59;100.00;101016.81;5020981;28;20303;-78
2023/09/03 04:23:26;;;;;;;3.07;2.87;;;;;;;16.59;100.00;101011.59;5023124;28;20281;-78
2023/09/03 04:25:52;;;;;;;2.73;2.53;;;;;;;16.58;100.00;101012.47;5023202;28;20220;-78
2023/09/03 04:28:19;;;;;;;3.57;3.27;;;;;;;16.58;100.00;101017.72;5022069;28;20270;-77
2023/09/03 04:30:44;;;;;;;4.77;3.63;;;;;;;16.59;100.00;101019.44;5028924;28;20203;-77
2023/09/03 04:33:10;;;;;;;4.27;3.27;;;;;;;16.55;100.00;101009.97;5027820;28;20684;-77
2023/09/03 04:35:36;;;;;;;3.73;3.40;;;;;;;16.53;100.00;101014.38;5023640;28;20223;-77
2023/09/03 04:38:02;;;;;;;3.53;3.00;;;;;;;16.52;100.00;101007.41;5020135;28;20306;-78
2023/09/03 04:40:27;;;;;;;3.50;3.20;;;;;;;16.53;100.00;101020.44;5025433;28;20269;-78
2023/09/03 04:42:53;;;;;;;3.40;3.20;;;;;;;16.54;100.00;101022.16;5028773;28;20186;-77
2023/09/03 04:45:18;;;;;;;3.57;3.27;;;;;;;16.55;100.00;101028.25;5025053;28;20923;-78
2023/09/03 04:47:44;;;;;;;3.73;3.33;;;;;;;16.53;100.00;101025.66;5021571;28;20191;-78
2023/09/03 04:50:10;;;;;;;3.47;3.10;;;;;;;16.52;100.00;101023.94;5044790;28;20200;-75
2023/09/03 04:52:35;;;;;;;3.00;2.80;;;;;;;16.52;100.00;101023.09;5046165;28;20188;-78
2023/09/03 04:55:01;;;;;;;3.23;2.93;;;;;;;16.51;100.00;101030.06;5027111;28;20620;-78
2023/09/03 04:57:27;;;;;;;4.00;3.20;;;;;;;16.52;100.00;101031.78;5024642;28;20723;-77
2023/09/03 04:59:53;;;;;;;4.47;2.97;;;;;;;16.54;100.00;101032.59;5018069;28;20204;-78
2023/09/03 05:02:18;;;;;;;3.20;3.00;;;;;;;16.55;100.00;101034.31;5024154;28;20257;-78
2023/09/03 05:04:43;;;;;;;3.63;3.33;;;;;;;16.51;100.00;101042.28;5027764;28;20636;-77
2023/09/03 05:07:09;;;;;;;5.77;3.77;;;;;;;16.54;100.00;101037.00;5020243;28;20185;-78
2023/09/03 05:09:34;;;;;;;4.10;3.70;;;;;;;16.52;100.00;101031.78;5029333;28;20218;-78
2023/09/03 05:11:59;;;;;;;5.03;3.80;;;;;;;16.53;100.00;101035.25;5028636;28;20215;-78
2023/09/03 05:14:25;;;;;;;4.50;3.63;;;;;;;16.52;100.00;101047.44;5026500;28;20544;-77
2023/09/03 05:16:50;;;;;;;4.00;3.60;;;;;;;16.55;100.00;101044.78;5019238;28;20198;-79
2023/09/03 05:19:15;;;;;;;4.40;3.80;;;;;;;16.58;100.00;101043.84;5025627;28;20245;-79
2023/09/03 05:21:41;;;;;;;3.70;3.40;;;;;;;16.59;100.00;101058.63;5023749;28;20198;-78
2023/09/03 05:24:07;;;;;;;4.23;3.83;;;;;;;16.68;100.00;101066.28;5026103;28;20226;-78
2023/09/03 05:26:32;;;;;;;4.87;4.27;;;;;;;16.75;100.00;101065.25;5022338;28;20854;-79
2023/09/03 05:28:58;;;;;;;4.57;4.07;;;;;;;16.78;100.00;101074.78;5025595;28;20606;-77
2023/09/03 05:31:23;;;;;;;4.97;4.23;;;;;;;16.83;100.00;101074.69;5022363;28;20848;-78
2023/09/03 05:33:48;;;;;;;6.53;4.30;;;;;;;16.85;100.00;101081.59;5025310;28;20202;-78
2023/09/03 05:36:14;;;;;;;6.13;4.57;;;;;;;16.88;100.00;101081.53;5017452;28;20834;-78
2023/09/03 05:38:42;;;;;;;5.00;4.40;;;;;;;16.88;100.00;101091.97;5025737;28;20660;-78
2023/09/03 05:41:10;;;;;;;4.90;4.50;;;;;;;16.95;100.00;101097.09;5020898;28;20290;-78
2023/09/03 05:43:37;;;;;;;4.73;4.13;;;;;;;16.97;100.00;101093.56;5024416;28;20192;-77
2023/09/03 05:46:03;;;;;;;4.40;4.10;;;;;;;17.06;100.00;101098.56;5022948;28;20213;-76
2023/09/03 05:48:28;;;;;;;4.03;3.73;;;;;;;17.15;100.00;101091.41;5017527;28;20214;-78
2023/09/03 05:50:57;;;;;;;4.27;3.87;;;;;;;17.24;100.00;101085.97;5020689;28;20211;-78
2023/09/03 05:53:24;;;;;;;4.00;3.70;;;;;;;17.35;100.00;101075.25;5021435;28;20248;-77
2023/09/03 05:55:49;;;;;;;3.63;3.33;;;;;;;17.45;100.00;101076.72;5020692;28;20579;-78
2023/09/03 05:58:14;;;;;;;5.50;4.00;;;;;;;17.55;100.00;101074.72;5021147;28;20192;-78
2023/09/03 06:00:41;;;;;;;3.43;3.13;;;;;;;17.64;100.00;101071.88;5020980;28;20727;-78
2023/09/03 06:03:06;;;;;;;3.97;3.60;;;;;;;17.70;100.00;101075.25;5026079;28;20668;-78
2023/09/03 06:05:32;;;;;;;4.77;4.37;;;;;;;17.73;100.00;101090.88;5027576;28;20208;-78
2023/09/03 06:07:58;;;;;;;4.13;3.63;;;;;;;17.74;100.00;101090.81;5023827;28;20186;-78
2023/09/03 06:10:24;;;;;;;4.53;3.97;;;;;;;17.80;100.00;101098.53;5016975;28;20212;-78
2023/09/03 06:12:49;;;;;;;4.03;3.70;;;;;;;17.88;100.00;101094.81;5020222;28;20199;-78
2023/09/03 06:15:15;;;;;;;3.90;3.60;;;;;;;18.02;100.00;101100.59;5024273;28;20240;-77
2023/09/03 06:17:40;;;;;;;4.00;3.60;;;;;;;18.12;100.00;101109.94;5022908;28;20878;-77
2023/09/03 06:20:06;;;;;;;3.97;3.63;;;;;;;18.24;100.00;101108.72;5012851;28;20215;-77
2023/09/03 06:22:31;;;;;;;3.53;3.23;;;;;;;18.38;100.00;101108.34;5017914;28;20191;-79
2023/09/03 06:24:57;;;;;;;3.53;3.10;;;;;;;18.51;100.00;101116.72;5017413;28;20587;-77
2023/09/03 06:27:22;;;;;;;4.37;3.57;;;;;;;18.62;100.00;101113.75;5021284;28;20790;-78
2023/09/03 06:29:47;;;;;;;3.40;3.20;;;;;;;18.74;100.00;101116.03;5022010;28;20276;-78
2023/09/03 06:32:12;;;;;;;3.30;3.00;;;;;;;18.84;100.00;101116.59;5026599;28;20186;-79
2023/09/03 06:34:38;;;;;;;4.67;3.57;;;;;;;18.86;100.00;101120.03;5030157;28;20180;-78
2023/09/03 06:37:03;;;;;;;4.03;3.73;;;;;;;18.93;100.00;101127.72;5037166;28;20303;-78
2023/09/03 06:39:30;;;;;;;4.50;4.10;;;;;;;18.87;100.00;101132.25;5022143;28;20264;-78
2023/09/03 06:41:56;;;;;;;4.27;3.87;;;;;;;18.81;100.00;101137.69;5028312;28;20314;-78
2023/09/03 06:44:23;;;;;;;6.60;4.03;;;;;;;18.85;100.00;101143.69;5041933;28;20297;-78
2023/09/03 06:46:48;;;;;;;4.50;4.07;;;;;;;18.95;100.00;101146.94;5040767;28;20192;-78
2023/09/03 06:49:13;;;;;;;3.47;3.17;;;;;;;19.05;100.00;101145.75;5038529;28;20541;-77
2023/09/03 06:51:39;;;;;;;4.93;3.93;;;;;;;19.15;100.00;101148.94;5030626;28;20206;-79
2023/09/03 06:54:04;;;;;;;5.47;3.70;;;;;;;19.19;100.00;101147.94;5028838;28;20253;-79
2023/09/03 06:56:29;;;;;;;3.53;3.23;;;;;;;19.27;100.00;101151.19;5030621;28;20259;-77
2023/09/03 06:58:55;;;;;;;3.37;3.07;;;;;;;19.38;100.00;101155.22;5036386;28;20195;-78
2023/09/03 07:01:20;;;;;;;3.13;2.87;;;;;;;19.53;100.00;101159.97;5036537;28;20777;-77
2023/09/03 07:03:45;;;;;;;4.27;3.13;;;;;;;19.62;100.00;101166.69;5036034;28;20237;-77
2023/09/03 07:06:11;;;;;;;6.33;3.80;;;;;;;19.65;100.00;101164.84;5035166;28;20220;-78
2023/09/03 07:08:36;;;;;;;3.47;3.27;;;;;;;19.75;100.00;101162.75;5030795;28;20197;-78
2023/09/03 07:11:01;;;;;;;3.37;3.07;;;;;;;19.83;100.00;101165.13;5027132;28;20581;-78
2023/09/03 07:13:27;;;;;;;2.80;2.60;;;;;;;19.97;100.00;101155.94;5025519;28;20269;-77
2023/09/03 07:15:52;;;;;;;3.60;2.70;;;;;;;20.11;100.00;101158.97;5023116;28;20183;-77
2023/09/03 07:18:17;;;;;;;4.40;3.97;;;;;;;20.09;100.00;101161.63;5020517;28;20291;-78
2023/09/03 07:20:43;;;;;;;5.30;3.80;;;;;;;19.92;100.00;101164.84;5023442;28;20212;-77
2023/09/03 07:23:08;;;;;;;5.80;4.20;;;;;;;19.76;100.00;101171.50;5025024;28;20195;-77
2023/09/03 07:25:35;;;;;;;5.20;4.17;;;;;;;19.72;100.00;101175.13;5018242;28;20272;-77
2023/09/03 07:28:00;;;;;;;4.30;3.60;;;;;;;19.84;100.00;101173.88;5021020;28;20188;-78
2023/09/03 07:30:26;;;;;;;4.27;3.87;;;;;;;20.03;100.00;101175.00;5019588;28;20207;-78
2023/09/03 07:32:51;;;;;;;4.73;4.00;;;;;;;20.00;100.00;101171.59;5020017;28;20261;-79
2023/09/03 07:35:16;;;;;;;4.57;4.17;;;;;;;20.04;100.00;101179.31;5019410;28;20211;-78
2023/09/03 07:37:43;;;;;;;4.33;3.93;;;;;;;20.31;100.00;101175.78;5023624;28;20244;-78
2023/09/03 07:40:09;;;;;;;6.03;4.23;;;;;;;20.37;100.00;101180.84;5022004;28;20215;-78
2023/09/03 07:42:34;;;;;;;6.00;3.83;;;;;;;20.18;100.00;101185.88;5024897;28;20627;-79
2023/09/03 07:45:00;;;;;;;5.70;4.30;;;;;;;20.06;100.00;101200.31;5022961;28;20210;-78
2023/09/03 07:47:25;;;;;;;4.63;4.23;;;;;;;20.04;100.00;101188.97;5016521;28;20264;-77
2023/09/03 07:49:51;;;;;;;5.60;4.10;;;;;;;20.08;100.00;101195.84;5030233;28;20923;-78
2023/09/03 07:52:17;;;;;;;5.97;4.20;;;;;;;20.22;100.00;101190.09;5027002;28;20219;-78
2023/09/03 07:54:43;;;;;;;4.97;4.13;;;;;;;20.15;100.00;101197.34;5027609;28;20188;-78
2023/09/03 07:57:08;;;;;;;4.90;4.23;;;;;;;19.97;100.00;101198.84;5030120;28;20261;-78
2023/09/03 07:59:34;;;;;;;3.67;3.27;;;;;;;20.17;100.00;101194.69;5024675;28;20215;-78
2023/09/03 08:02:00;;;;;;;5.00;4.53;;;;;;;20.51;100.00;101198.72;5028296;28;20194;-78
2023/09/03 08:04:25;;;;;;;7.20;4.30;;;;;;;20.35;100.00;101198.44;5025313;28;20730;-77
2023/09/03 08:06:51;;;;;;;5.50;3.50;;;;;;;20.37;100.00;101196.59;5025996;28;20544;-78
2023/09/03 08:09:16;;;;;;;3.67;3.30;;;;;;;20.37;100.00;101194.81;5025419;28;20194;-78
2023/09/03 08:11:41;;;;;;;4.37;3.47;;;;;;;20.77;100.00;101207.50;5022628;28;20187;-78
2023/09/03 08:14:07;;;;;;;4.20;3.80;;;;;;;20.64;100.00;101207.91;5031626;28;20546;-78
2023/09/03 08:16:33;;;;;;;34.17;30.57;;;;;;;21.12;100.00;101207.91;5032319;28;20203;-77
2023/09/03 08:18:58;;;;;;;9.20;8.40;;;;;;;21.52;100.00;101202.84;5031147;28;20301;-77
2023/09/03 08:21:24;;;;;;;8.30;7.60;;;;;;;21.75;100.00;101207.22;5033871;28;20395;-79
2023/09/03 08:23:49;;;;;;;20.90;19.07;;;;;;;21.69;100.00;101200.41;5028368;28;20211;-77
2023/09/03 08:26:14;;;;;;;8.83;8.00;;;;;;;21.84;100.00;101204.22;5020403;28;20208;-78
2023/09/03 08:28:39;;;;;;;10.57;9.67;;;;;;;21.90;100.00;101203.94;5025279;28;20253;-79
2023/09/03 08:31:05;;;;;;;3.87;3.30;;;;;;;21.96;100.00;101207.25;5017414;28;20238;-79
2023/09/03 08:33:30;;;;;;;3.23;2.93;;;;;;;21.50;100.00;101202.03;5029264;28;20184;-76
2023/09/03 08:35:56;;;;;;;3.10;2.70;;;;;;;21.74;100.00;101205.50;5031208;28;20184;-78
2023/09/03 08:38:21;;;;;;;3.10;2.40;;;;;;;21.87;100.00;101209.31;5027846;28;20195;-78
2023/09/03 08:40:47;;;;;;;3.37;2.50;;;;;;;21.89;100.00;101212.75;5030353;28;20200;-78
2023/09/03 08:43:18;;;;;;;3.50;2.80;;;;;;;21.76;100.00;101206.28;5022013;28;20184;-78
2023/09/03 08:45:51;;;;;;;17.27;15.83;;;;;;;21.99;100.00;101207.97;5026772;28;20309;-78
2023/09/03 08:48:16;;;;;;;3.00;2.70;;;;;;;22.00;100.00;101211.47;5024948;28;20183;-77
2023/09/03 08:50:42;;;;;;;2.70;1.93;;;;;;;21.96;100.00;101212.50;5030623;28;20229;-77
2023/09/03 08:53:09;;;;;;;2.33;2.10;;;;;;;21.99;100.00;101209.75;5028535;28;20175;-77
2023/09/03 08:55:34;;;;;;;2.97;2.73;;;;;;;22.19;100.00;101215.00;5027099;28;20279;-77
2023/09/03 08:57:59;;;;;;;5.17;4.70;;;;;;;22.38;100.00;101224.78;5022351;28;20554;-80
2023/09/03 09:00:25;;;;;;;6.50;3.70;;;;;;;22.69;100.00;101224.28;5021360;28;20202;-79
2023/09/03 09:02:52;;;;;;;3.40;2.77;;;;;;;22.73;100.00;101213.59;5018823;28;20243;-76
2023/09/03 09:05:18;;;;;;;2.90;2.03;;;;;;;23.08;100.00;101211.97;5017249;28;20204;-77
2023/09/03 09:07:46;;;;;;;2.07;1.90;;;;;;;23.09;100.00;101226.88;5026058;28;20737;-76
2023/09/03 09:10:13;;;;;;;2.43;1.97;;;;;;;23.19;100.00;101226.47;5028241;28;20801;-78
2023/09/03 09:12:49;;;;;;;3.50;1.90;;;;;;;23.20;100.00;101230.81;5029657;28;20634;-77
2023/09/03 09:15:14;;;;;;;2.37;1.70;;;;;;;22.85;100.00;101236.78;5020909;28;20258;-76
2023/09/03 09:17:43;;;;;;;2.40;2.20;;;;;;;22.83;100.00;101230.75;5018436;28;20274;-77
2023/09/03 09:20:17;;;;;;;4.13;1.70;;;;;;;23.01;100.00;101236.94;5025221;28;20195;-79
2023/09/03 09:22:47;;;;;;;2.30;2.10;;;;;;;23.00;100.00;101240.53;5024017;28;20183;-77
2023/09/03 09:25:24;;;;;;;2.30;2.10;;;;;;;23.18;100.00;101238.78;5026060;28;20526;-77
2023/09/03 09:27:52;;;;;;;2.70;2.30;;;;;;;23.27;100.00;101241.06;5020553;28;20183;-77
2023/09/03 09:30:19;;;;;;;2.60;2.23;;;;;;;23.34;100.00;101246.03;5021076;28;20214;-77
2023/09/03 09:32:45;;;;;;;4.57;2.20;;;;;;;23.19;100.00;101248.44;5019033;28;20184;-76
2023/09/03 09:35:22;;;;;;;3.10;1.70;;;;;;;23.37;100.00;101252.00;5022325;28;20241;-76
2023/09/03 09:37:48;;;;;;;2.97;2.10;;;;;;;23.02;100.00;101249.22;5015771;28;20190;-77
2023/09/03 09:40:24;;;;;;;2.37;1.90;;;;;;;23.24;100.00;101253.53;5020734;28;20207;-77
2023/09/03 09:42:58;;;;;;;2.43;2.10;;;;;;;23.27;100.00;101251.63;5014662;28;20187;-77
2023/09/03 09:45:23;;;;;;;2.50;2.30;;;;;;;23.15;100.00;101241.56;5020945;28;20214;-77
2023/09/03 09:48:09;;;;;;;2.53;1.80;;;;;;;23.18;100.00;101245.88;5015430;28;20188;-78
2023/09/03 09:50:36;;;;;;;2.53;2.00;;;;;;;23.13;100.00;101249.59;5017090;28;20206;-77
2023/09/03 09:53:03;;;;;;;2.23;2.03;;;;;;;23.21;100.00;101245.78;5014629;28;20691;-77
2023/09/03 09:55:31;;;;;;;1.70;1.60;;;;;;;23.22;100.00;101248.31;5015690;28;20184;-77
2023/09/03 09:57:56;;;;;;;4.03;2.30;;;;;;;23.28;100.00;101253.34;5012279;28;20516;-77
2023/09/03 10:00:35;;;;;;;2.47;2.27;;;;;;;23.39;100.00;101249.31;5015511;28;20698;-78
2023/09/03 10:03:02;;;;;;;2.93;2.20;;;;;;;23.25;100.00;101249.97;5017517;28;20183;-77
2023/09/03 10:05:28;;;;;;;2.10;1.90;;;;;;;23.43;100.00;101249.09;5019758;28;20250;-78
2023/09/03 10:07:53;;;;;;;2.60;2.40;;;;;;;23.18;100.00;101256.44;5015995;28;20214;-78
2023/09/03 10:10:19;;;;;;;2.70;2.10;;;;;;;23.04;100.00;101259.69;5017691;28;20199;-78
2023/09/03 10:12:45;;;;;;;1.87;1.70;;;;;;;23.24;100.00;101258.81;5016995;28;20188;-78
2023/09/03 10:15:13;;;;;;;1.93;1.77;;;;;;;23.46;100.00;101256.00;5020920;28;20199;-77
2023/09/03 10:17:40;;;;;;;2.13;1.57;;;;;;;23.28;100.00;101255.09;5017817;28;20291;-77
2023/09/03 10:20:10;;;;;;;3.43;1.80;;;;;;;23.55;100.00;101254.72;5019357;28;20204;-76
2023/09/03 10:22:40;;;;;;;1.87;1.53;;;;;;;23.47;100.00;101256.88;5028155;28;20228;-77
2023/09/03 10:25:13;;;;;;;2.57;1.60;;;;;;;23.68;100.00;101255.81;5015849;28;20643;-78
2023/09/03 10:27:45;;;;;;;1.90;1.70;;;;;;;23.62;100.00;101248.22;5020084;28;20192;-76
2023/09/03 10:30:15;;;;;;;2.23;1.57;;;;;;;23.83;100.00;101245.44;5016317;28;20217;-76
2023/09/03 10:32:41;;;;;;;1.97;1.77;;;;;;;24.11;100.00;101241.44;5018875;28;20187;-77
2023/09/03 10:35:08;;;;;;;1.87;1.63;;;;;;;23.78;100.00;101243.00;5018169;28;20671;-77
2023/09/03 10:37:41;;;;;;;2.03;1.63;;;;;;;24.14;100.00;101233.34;5014721;28;20203;-79
2023/09/03 10:40:24;;;;;;;2.33;1.40;;;;;;;24.21;99.42;101232.09;5027772;28;20207;-78
2023/09/03 10:42:51;;;;;;;1.60;1.50;;;;;;;24.34;99.21;101230.53;5020652;28;20195;-77
2023/09/03 10:45:18;;;;;;;2.63;1.33;;;;;;;24.57;98.57;101225.84;5014989;28;20278;-78
2023/09/03 10:48:02;;;;;;;3.00;1.50;;;;;;;24.70;97.70;101226.03;5014420;28;20193;-77
2023/09/03 10:50:40;;;;;;;2.00;1.80;;;;;;;24.29;97.88;101229.06;5011446;28;20207;-77
2023/09/03 10:53:06;;;;;;;2.53;1.40;;;;;;;23.95;98.08;101228.97;5015056;28;20194;-77
2023/09/03 10:55:31;;;;;;;1.50;1.40;;;;;;;24.10;97.67;101230.00;5015427;28;20352;-77
2023/09/03 10:58:16;;;;;;;1.80;1.43;;;;;;;24.14;96.79;101231.56;5016241;28;20656;-77
2023/09/03 11:01:20;;;;;;;1.50;1.40;;;;;;;24.29;96.84;101221.97;5016186;28;20249;-78
2023/09/03 11:03:47;;;;;;;1.43;1.33;;;;;;;24.57;96.39;101222.31;5019234;28;20198;-77
2023/09/03 11:06:18;;;;;;;1.37;1.10;;;;;;;24.33;96.69;101223.53;5020247;28;20211;-77
2023/09/03 11:08:48;;;;;;;2.63;1.93;;;;;;;24.53;97.29;101216.34;5017780;28;20195;-77
2023/09/03 11:11:21;;;;;;;2.57;1.70;;;;;;;24.58;96.85;101224.03;5017456;28;20211;-77
2023/09/03 11:13:53;;;;;;;1.73;1.53;;;;;;;24.69;94.74;101213.72;5018857;28;20201;-76
2023/09/03 11:16:32;;;;;;;2.77;1.40;;;;;;;24.81;94.99;101214.88;5017565;28;20225;-78
2023/09/03 11:18:58;;;;;;;1.97;1.53;;;;;;;24.92;94.42;101209.84;5018638;28;20191;-77